Time;durP1;ratioP1;P1;durP2;ratioP2;P2;SDS_P1;SDS_P2;PMS_P1;PMS_P2;Temp;Humidity;BMP_temperature;BMP_pressure;BME280_temperature;BME280_humidity;BME280_pressure;Samples;Min_cycle;Max_cycle;Signal;HPM_P1;HPM_P2
2020/12/08 00:00:22;;;;;;;54.40;32.40;;;5.90;99.90;;;;;;5033797;28;20033;-62
2020/12/08 00:02:49;;;;;;;56.33;33.85;;;5.90;99.90;;;;;;5034809;28;20121;-62
2020/12/08 00:05:17;;;;;;;57.30;33.38;;;5.90;99.90;;;;;;5031012;28;20045;-62
2020/12/08 00:07:43;;;;;;;57.03;31.67;;;5.80;99.90;;;;;;5036752;28;20029;-62
2020/12/08 00:10:09;;;;;;;57.45;33.92;;;5.80;99.90;;;;;;5032820;28;20028;-62
2020/12/08 00:12:35;;;;;;;55.60;33.63;;;5.80;99.90;;;;;;5036342;28;20037;-62
2020/12/08 00:15:01;;;;;;;62.50;34.75;;;5.80;99.90;;;;;;5031442;28;20028;-62
2020/12/08 00:17:27;;;;;;;62.33;34.45;;;5.90;99.90;;;;;;5032807;28;20600;-62
2020/12/08 00:19:52;;;;;;;59.65;34.58;;;5.90;99.90;;;;;;5036509;28;20041;-62
2020/12/08 00:22:18;;;;;;;62.35;33.88;;;5.90;99.90;;;;;;5033259;28;20409;-62
2020/12/08 00:24:45;;;;;;;54.03;32.45;;;5.90;99.90;;;;;;5033502;28;20503;-62
2020/12/08 00:27:11;;;;;;;58.30;34.83;;;5.90;99.90;;;;;;5034561;28;20029;-62
2020/12/08 00:29:38;;;;;;;57.13;35.00;;;5.90;99.90;;;;;;5008923;28;20041;-62
2020/12/08 00:32:05;;;;;;;54.08;32.85;;;5.90;99.90;;;;;;5034347;28;20064;-62
2020/12/08 00:34:31;;;;;;;57.13;33.17;;;5.90;99.90;;;;;;5032281;28;20021;-62
2020/12/08 00:36:57;;;;;;;58.30;34.10;;;5.90;99.90;;;;;;5032537;28;20049;-61
2020/12/08 00:39:23;;;;;;;57.47;33.67;;;5.90;99.90;;;;;;5016172;28;20586;-62
2020/12/08 00:41:49;;;;;;;61.03;34.72;;;5.90;99.90;;;;;;5036139;28;20060;-62
2020/12/08 00:44:15;;;;;;;59.83;34.67;;;5.80;99.90;;;;;;5033356;28;20044;-62
2020/12/08 00:46:40;;;;;;;59.47;34.47;;;5.80;99.90;;;;;;5031774;28;20047;-62
2020/12/08 00:49:06;;;;;;;57.85;33.17;;;5.90;99.90;;;;;;5034560;28;20045;-62
2020/12/08 00:51:33;;;;;;;56.17;34.25;;;5.90;99.90;;;;;;5033059;28;20044;-62
2020/12/08 00:54:00;;;;;;;57.58;35.13;;;5.90;99.90;;;;;;5033235;28;20033;-62
2020/12/08 00:56:26;;;;;;;57.85;33.83;;;5.90;99.90;;;;;;5031509;28;20069;-62
2020/12/08 00:58:51;;;;;;;60.63;34.17;;;5.90;99.90;;;;;;5035252;28;20049;-62
2020/12/08 01:01:17;;;;;;;60.28;33.55;;;5.80;99.90;;;;;;5032314;28;20040;-62
2020/12/08 01:03:43;;;;;;;61.05;34.85;;;5.80;99.90;;;;;;5032758;28;20391;-62
2020/12/08 01:06:09;;;;;;;58.30;34.47;;;5.90;99.90;;;;;;5032242;28;20033;-62
2020/12/08 01:08:36;;;;;;;63.90;35.00;;;5.80;99.90;;;;;;5032666;28;20060;-62
2020/12/08 01:11:01;;;;;;;63.35;36.20;;;5.80;99.90;;;;;;5035664;28;20535;-62
2020/12/08 01:13:27;;;;;;;62.53;35.72;;;5.80;99.90;;;;;;5033616;28;20068;-62
2020/12/08 01:15:53;;;;;;;63.03;35.33;;;5.90;99.90;;;;;;5034951;28;20147;-62
2020/12/08 01:18:19;;;;;;;65.95;36.22;;;5.80;99.90;;;;;;5033019;28;20255;-62
2020/12/08 01:20:45;;;;;;;63.13;34.90;;;5.90;99.90;;;;;;5032329;28;20384;-62
2020/12/08 01:23:11;;;;;;;61.42;35.03;;;5.80;99.90;;;;;;5035187;28;20539;-62
2020/12/08 01:25:38;;;;;;;63.47;35.78;;;5.90;99.90;;;;;;5036567;28;20207;-62
2020/12/08 01:28:04;;;;;;;63.55;35.20;;;5.90;99.90;;;;;;5039149;28;20036;-62
2020/12/08 01:30:30;;;;;;;59.17;33.42;;;5.90;99.90;;;;;;5027884;28;20502;-62
2020/12/08 01:32:56;;;;;;;61.03;35.20;;;5.90;99.90;;;;;;5037225;28;20029;-62
2020/12/08 01:35:22;;;;;;;68.13;37.13;;;5.90;99.90;;;;;;5040684;28;20092;-62
2020/12/08 01:37:48;;;;;;;64.70;34.22;;;5.90;99.90;;;;;;5033692;28;20103;-62
2020/12/08 01:40:14;;;;;;;69.75;37.25;;;5.80;99.90;;;;;;5038415;28;20031;-62
2020/12/08 01:42:40;;;;;;;64.05;36.78;;;5.80;99.90;;;;;;5035779;28;20442;-62
2020/12/08 01:45:06;;;;;;;69.63;37.25;;;5.90;99.90;;;;;;5037533;28;20044;-62
2020/12/08 01:47:33;;;;;;;63.35;34.70;;;5.90;99.90;;;;;;5037699;28;20034;-62
2020/12/08 01:49:59;;;;;;;64.80;35.25;;;5.80;99.90;;;;;;5034603;28;20500;-62
2020/12/08 01:52:26;;;;;;;68.97;36.65;;;5.80;99.90;;;;;;5037259;28;20489;-62
2020/12/08 01:54:54;;;;;;;65.88;36.45;;;5.90;99.90;;;;;;5033499;28;20513;-62
2020/12/08 01:57:20;;;;;;;69.35;37.15;;;5.80;99.90;;;;;;5037350;28;20439;-62
2020/12/08 01:59:46;;;;;;;64.75;34.30;;;5.80;99.90;;;;;;5036412;28;20067;-62
2020/12/08 02:02:12;;;;;;;66.65;36.83;;;5.80;99.90;;;;;;5036650;28;20033;-62
2020/12/08 02:04:38;;;;;;;59.67;35.78;;;5.80;99.90;;;;;;5034101;28;20903;-62
2020/12/08 02:07:05;;;;;;;63.85;37.55;;;5.80;99.90;;;;;;5033827;28;20029;-62
2020/12/08 02:09:34;;;;;;;63.53;35.30;;;5.80;99.90;;;;;;5036607;28;20463;-62
2020/12/08 02:12:00;;;;;;;60.20;36.38;;;5.80;99.90;;;;;;5034404;28;20377;-62
2020/12/08 02:14:26;;;;;;;60.90;34.47;;;5.80;99.90;;;;;;5036330;28;20045;-62
2020/12/08 02:16:52;;;;;;;60.00;34.55;;;5.80;99.90;;;;;;5036695;28;20056;-62
2020/12/08 02:19:18;;;;;;;63.35;36.08;;;5.80;99.90;;;;;;5038007;28;20419;-62
2020/12/08 02:21:43;;;;;;;58.55;33.65;;;5.80;99.90;;;;;;5035058;28;20063;-62
2020/12/08 02:24:09;;;;;;;58.42;35.03;;;5.90;99.90;;;;;;5036232;28;20086;-62
2020/12/08 02:26:35;;;;;;;56.65;33.65;;;5.90;99.90;;;;;;5036147;28;20043;-62
2020/12/08 02:29:01;;;;;;;56.25;33.15;;;5.90;99.90;;;;;;5036372;28;20197;-62
2020/12/08 02:31:27;;;;;;;54.92;32.97;;;5.90;99.90;;;;;;5034838;28;20041;-61
2020/12/08 02:33:53;;;;;;;54.40;33.28;;;5.80;99.90;;;;;;5012562;28;20040;-62
2020/12/08 02:36:18;;;;;;;54.63;33.03;;;5.80;99.90;;;;;;5036063;28;20121;-62
2020/12/08 02:38:44;;;;;;;53.90;32.03;;;5.80;99.90;;;;;;5036342;28;20043;-62
2020/12/08 02:41:10;;;;;;;52.53;33.08;;;5.80;99.90;;;;;;5037834;28;20466;-62
2020/12/08 02:43:36;;;;;;;51.20;31.33;;;5.90;99.90;;;;;;5034340;28;20067;-62
2020/12/08 02:46:02;;;;;;;53.10;30.92;;;5.80;99.90;;;;;;5036787;28;20043;-62
2020/12/08 02:48:28;;;;;;;55.75;33.40;;;5.80;99.90;;;;;;5035931;28;20477;-62
2020/12/08 02:50:54;;;;;;;54.38;31.90;;;5.80;99.90;;;;;;5036727;28;20048;-62
2020/12/08 02:53:20;;;;;;;50.47;29.85;;;5.80;99.90;;;;;;5037427;28;20690;-62
2020/12/08 02:55:49;;;;;;;55.35;32.88;;;5.80;99.90;;;;;;5034397;28;20032;-62
2020/12/08 02:58:16;;;;;;;54.97;32.25;;;5.80;99.90;;;;;;5035480;28;20032;-62
2020/12/08 03:00:42;;;;;;;56.45;32.45;;;5.80;99.90;;;;;;5035831;28;20033;-62
2020/12/08 03:03:08;;;;;;;58.25;34.55;;;5.80;99.90;;;;;;5034611;28;20040;-62
2020/12/08 03:05:34;;;;;;;52.63;32.17;;;5.80;99.90;;;;;;5034765;28;20064;-62
2020/12/08 03:08:00;;;;;;;59.42;35.83;;;5.70;99.90;;;;;;5033062;28;20053;-63
2020/12/08 03:10:25;;;;;;;58.83;33.58;;;5.80;99.90;;;;;;5036262;28;20037;-62
2020/12/08 03:12:52;;;;;;;54.75;33.92;;;5.80;99.90;;;;;;5036639;28;20059;-62
2020/12/08 03:15:18;;;;;;;54.80;33.53;;;5.70;99.90;;;;;;5033666;28;20574;-62
2020/12/08 03:17:44;;;;;;;57.35;33.47;;;5.70;99.90;;;;;;5034287;28;20031;-62
2020/12/08 03:20:10;;;;;;;56.80;35.33;;;5.80;99.90;;;;;;5037010;28;20447;-62
2020/12/08 03:22:36;;;;;;;61.25;37.13;;;5.80;99.90;;;;;;5034004;28;20246;-62
2020/12/08 03:25:05;;;;;;;60.45;35.88;;;5.80;99.90;;;;;;5033613;28;20086;-62
2020/12/08 03:27:31;;;;;;;57.83;35.00;;;5.80;99.90;;;;;;5031790;28;20486;-62
2020/12/08 03:29:57;;;;;;;61.63;35.53;;;5.70;99.90;;;;;;5026606;28;20149;-62
2020/12/08 03:32:23;;;;;;;60.20;35.60;;;5.70;99.90;;;;;;5034804;28;20667;-62
2020/12/08 03:34:49;;;;;;;62.40;36.78;;;5.60;99.90;;;;;;5031328;28;20041;-62
2020/12/08 03:37:15;;;;;;;65.78;35.80;;;5.60;99.90;;;;;;5032337;28;20048;-62
2020/12/08 03:39:41;;;;;;;64.65;38.05;;;5.60;99.90;;;;;;5035141;28;20087;-62
2020/12/08 03:42:07;;;;;;;61.40;35.38;;;5.50;99.90;;;;;;5035807;28;20032;-62
2020/12/08 03:44:32;;;;;;;59.15;35.08;;;5.60;99.90;;;;;;5029398;28;20757;-62
2020/12/08 03:46:59;;;;;;;62.72;36.65;;;5.70;99.90;;;;;;5034469;28;20025;-62
2020/12/08 03:49:28;;;;;;;65.93;36.88;;;5.70;99.90;;;;;;5034409;28;20033;-62
2020/12/08 03:51:55;;;;;;;64.20;36.90;;;5.60;99.90;;;;;;5034281;28;20037;-62
2020/12/08 03:54:21;;;;;;;62.63;35.72;;;5.60;99.90;;;;;;5032948;28;20071;-62
2020/12/08 03:56:47;;;;;;;66.32;37.85;;;5.60;99.90;;;;;;5035335;28;20144;-62
2020/12/08 03:59:17;;;;;;;63.65;36.80;;;5.50;99.90;;;;;;5035666;28;20057;-62
2020/12/08 04:01:49;;;;;;;61.92;37.08;;;5.50;99.90;;;;;;5034758;28;20400;-62
2020/12/08 04:04:16;;;;;;;66.88;37.08;;;5.50;99.90;;;;;;5030297;28;20094;-62
2020/12/08 04:06:42;;;;;;;64.00;36.80;;;5.50;99.90;;;;;;5033748;28;20591;-62
2020/12/08 04:09:08;;;;;;;60.97;35.50;;;5.50;99.90;;;;;;5035665;28;20039;-62
2020/12/08 04:11:34;;;;;;;65.60;37.45;;;5.50;99.90;;;;;;5033458;28;20025;-62
2020/12/08 04:14:03;;;;;;;65.25;36.88;;;5.50;99.90;;;;;;5030924;28;20140;-62
2020/12/08 04:16:33;;;;;;;67.90;38.10;;;5.50;99.90;;;;;;5037017;28;20025;-62
2020/12/08 04:19:00;;;;;;;68.30;37.85;;;5.50;99.90;;;;;;5034904;28;20386;-62
2020/12/08 04:21:28;;;;;;;66.82;37.38;;;5.60;99.90;;;;;;5032154;28;20041;-62
2020/12/08 04:23:54;;;;;;;64.07;37.53;;;5.50;99.90;;;;;;5030979;28;20087;-62
2020/12/08 04:26:21;;;;;;;60.97;36.17;;;5.60;99.90;;;;;;5032089;28;20091;-62
2020/12/08 04:28:47;;;;;;;68.25;39.05;;;5.60;99.90;;;;;;5030622;28;20486;-62
2020/12/08 04:31:17;;;;;;;62.17;35.90;;;5.60;99.90;;;;;;5032113;28;20475;-62
2020/12/08 04:33:43;;;;;;;60.40;35.42;;;5.60;99.90;;;;;;5032942;28;20510;-62
2020/12/08 04:36:13;;;;;;;63.03;35.70;;;5.60;99.90;;;;;;5034686;28;20528;-62
2020/12/08 04:38:40;;;;;;;63.80;35.15;;;5.60;99.90;;;;;;5033641;28;20041;-62
2020/12/08 04:41:06;;;;;;;65.22;37.17;;;5.50;99.90;;;;;;5033458;28;20560;-62
2020/12/08 04:43:32;;;;;;;61.90;35.35;;;5.50;99.90;;;;;;5032947;28;20613;-62
2020/12/08 04:45:59;;;;;;;63.15;35.30;;;5.40;99.90;;;;;;5011051;28;20037;-62
2020/12/08 04:48:25;;;;;;;62.70;35.58;;;5.50;99.90;;;;;;5031360;28;20037;-62
2020/12/08 04:50:51;;;;;;;60.40;33.55;;;5.40;99.90;;;;;;5032597;28;20043;-62
2020/12/08 04:53:17;;;;;;;64.40;34.08;;;5.40;99.90;;;;;;5023629;28;20366;-62
2020/12/08 04:55:43;;;;;;;62.10;35.88;;;5.40;99.90;;;;;;5030295;28;20147;-62
2020/12/08 04:58:09;;;;;;;62.25;35.30;;;5.40;99.90;;;;;;5013740;28;20029;-62
2020/12/08 05:00:41;;;;;;;63.65;36.33;;;5.40;99.90;;;;;;5030105;28;20076;-62
2020/12/08 05:03:08;;;;;;;66.78;37.45;;;5.40;99.90;;;;;;5019230;28;20029;-62
2020/12/08 05:05:41;;;;;;;62.72;35.22;;;5.40;99.90;;;;;;5022034;28;20048;-62
2020/12/08 05:08:08;;;;;;;62.72;34.85;;;5.50;99.90;;;;;;5027250;28;20099;-62
2020/12/08 05:10:34;;;;;;;65.22;37.47;;;5.50;99.90;;;;;;5022342;28;20038;-67
2020/12/08 05:13:00;;;;;;;68.57;36.83;;;5.50;99.90;;;;;;5024215;28;20515;-67
2020/12/08 05:15:26;;;;;;;66.43;36.92;;;5.50;99.90;;;;;;5030046;28;20170;-68
2020/12/08 05:17:52;;;;;;;65.35;36.33;;;5.50;99.90;;;;;;5029176;28;20044;-67
2020/12/08 05:20:19;;;;;;;65.72;36.85;;;5.50;99.90;;;;;;5013441;28;20037;-67
2020/12/08 05:22:58;;;;;;;62.55;35.33;;;5.60;99.90;;;;;;5025471;28;20030;-67
2020/12/08 05:25:27;;;;;;;64.00;36.80;;;5.60;99.90;;;;;;5027311;28;20060;-68
2020/12/08 05:27:55;;;;;;;68.82;37.85;;;5.50;99.90;;;;;;5030627;28;20037;-67
2020/12/08 05:30:21;;;;;;;69.78;38.78;;;5.50;99.90;;;;;;5023988;28;20460;-67
2020/12/08 05:32:47;;;;;;;67.38;38.35;;;5.60;99.90;;;;;;5034005;28;20127;-68
2020/12/08 05:35:24;;;;;;;66.70;36.08;;;5.60;99.90;;;;;;5030925;28;20041;-68
2020/12/08 05:37:54;;;;;;;71.57;37.65;;;5.70;99.90;;;;;;5030538;28;20132;-67
2020/12/08 05:40:22;;;;;;;72.78;39.85;;;5.60;99.90;;;;;;5036559;28;20037;-68
2020/12/08 05:42:50;;;;;;;69.25;38.47;;;5.50;99.90;;;;;;5030678;28;20033;-67
2020/12/08 05:45:20;;;;;;;70.22;37.42;;;5.50;99.90;;;;;;5024772;28;20504;-67
2020/12/08 05:47:46;;;;;;;;;;;5.50;99.90;;;;;;5032264;28;20033;-67
2020/12/08 05:50:13;;;;;;;68.90;34.45;;;5.40;99.90;;;;;;5031818;28;19919;-67
2020/12/08 05:52:40;;;;;;;69.93;38.10;;;5.40;99.90;;;;;;5029400;28;20056;-67
2020/12/08 05:55:10;;;;;;;71.45;37.08;;;5.40;99.90;;;;;;5024106;28;20073;-68
2020/12/08 05:57:37;;;;;;;69.45;36.55;;;5.40;99.90;;;;;;5028203;28;20056;-67
2020/12/08 06:00:05;;;;;;;67.85;36.35;;;5.40;99.90;;;;;;5019777;28;20083;-67
2020/12/08 06:02:31;;;;;;;67.53;37.60;;;5.30;99.90;;;;;;5025771;28;20564;-67
2020/12/08 06:04:58;;;;;;;67.93;36.22;;;5.30;99.90;;;;;;5030512;28;20047;-67
2020/12/08 06:07:32;;;;;;;69.93;38.22;;;5.30;99.90;;;;;;5033047;28;20039;-67
2020/12/08 06:10:09;;;;;;;70.63;36.55;;;5.10;99.90;;;;;;5033071;28;20415;-67
2020/12/08 06:12:39;;;;;;;74.00;38.25;;;5.20;99.90;;;;;;5036166;28;20029;-67
2020/12/08 06:15:22;;;;;;;72.55;38.67;;;5.20;99.90;;;;;;5032175;28;20484;-67
2020/12/08 06:17:48;;;;;;;73.40;38.47;;;5.30;99.90;;;;;;5035947;28;20033;-67
2020/12/08 06:20:14;;;;;;;81.38;40.47;;;5.20;99.90;;;;;;5037857;28;20025;-67
2020/12/08 06:22:40;;;;;;;76.53;40.33;;;5.20;99.90;;;;;;5039109;28;20027;-67
2020/12/08 06:25:06;;;;;;;76.07;41.03;;;5.30;99.90;;;;;;5038238;28;20579;-67
2020/12/08 06:27:33;;;;;;;76.97;39.65;;;5.30;99.90;;;;;;5020798;28;20212;-67
2020/12/08 06:29:59;;;;;;;79.28;41.92;;;5.40;99.90;;;;;;5038232;28;20028;-67
2020/12/08 06:32:30;;;;;;;78.85;41.20;;;5.30;99.90;;;;;;5039059;28;20025;-67
2020/12/08 06:35:10;;;;;;;79.57;42.15;;;5.40;99.90;;;;;;5038133;28;20033;-66
2020/12/08 06:37:36;;;;;;;80.78;42.13;;;5.30;99.90;;;;;;5039050;28;20548;-67
2020/12/08 06:40:11;;;;;;;80.30;41.65;;;5.30;99.90;;;;;;5038753;28;20032;-67
2020/12/08 06:42:37;;;;;;;74.60;39.80;;;5.30;99.90;;;;;;5040013;28;20036;-67
2020/12/08 06:45:15;;;;;;;81.30;43.92;;;5.30;99.90;;;;;;5019523;28;20032;-67
2020/12/08 06:47:42;;;;;;;82.63;40.92;;;5.30;99.90;;;;;;5039301;28;20025;-67
2020/12/08 06:50:21;;;;;;;81.22;44.13;;;5.20;99.90;;;;;;5039035;28;20029;-67
2020/12/08 06:52:52;;;;;;;82.35;43.22;;;5.20;99.90;;;;;;5039490;28;20025;-67
2020/12/08 06:55:18;;;;;;;81.95;43.13;;;5.30;99.90;;;;;;5036343;28;20519;-67
2020/12/08 06:57:44;;;;;;;81.60;41.38;;;5.30;99.90;;;;;;5031530;28;20042;-66
2020/12/08 07:00:10;;;;;;;86.43;44.63;;;5.30;99.90;;;;;;5018122;28;20044;-67
2020/12/08 07:02:48;;;;;;;84.85;45.65;;;5.20;99.90;;;;;;5029039;28;20082;-67
2020/12/08 07:05:19;;;;;;;79.47;42.85;;;5.20;99.90;;;;;;5037391;28;20068;-67
2020/12/08 07:07:45;;;;;;;79.78;41.20;;;5.20;99.90;;;;;;5037458;28;20059;-67
2020/12/08 07:10:12;;;;;;;78.90;42.33;;;5.30;99.90;;;;;;5036663;28;20041;-67
2020/12/08 07:12:43;;;;;;;83.90;42.35;;;5.20;99.90;;;;;;5038281;28;20526;-67
2020/12/08 07:15:14;;;;;;;82.10;44.05;;;5.10;99.90;;;;;;5036997;28;20057;-67
2020/12/08 07:17:39;;;;;;;85.28;46.13;;;5.00;99.90;;;;;;5036808;28;20021;-67
2020/12/08 07:20:05;;;;;;;80.18;42.30;;;5.00;99.90;;;;;;5036042;28;20797;-68
2020/12/08 07:22:47;;;;;;;78.30;43.53;;;5.00;99.90;;;;;;5034505;28;20492;-67
2020/12/08 07:25:15;;;;;;;83.40;44.13;;;5.00;99.90;;;;;;5016683;28;20392;-68
2020/12/08 07:27:50;;;;;;;77.50;42.28;;;4.90;99.90;;;;;;5038005;28;20056;-67
2020/12/08 07:30:20;;;;;;;81.57;42.25;;;4.90;99.90;;;;;;5035992;28;20025;-69
2020/12/08 07:32:47;;;;;;;75.43;41.92;;;4.80;99.90;;;;;;5036360;28;20476;-67
2020/12/08 07:35:23;;;;;;;86.63;44.20;;;4.80;99.90;;;;;;5036556;28;20039;-67
2020/12/08 07:37:52;;;;;;;79.55;40.30;;;4.80;99.90;;;;;;5035692;28;20358;-68
2020/12/08 07:40:19;;;;;;;79.40;41.60;;;4.80;99.90;;;;;;5038114;28;20743;-67
2020/12/08 07:42:51;;;;;;;78.07;42.22;;;4.80;99.90;;;;;;5038232;28;20033;-68
2020/12/08 07:45:18;;;;;;;83.18;43.20;;;4.80;99.90;;;;;;5036348;28;20163;-68
2020/12/08 07:47:46;;;;;;;86.20;41.97;;;4.70;99.90;;;;;;5038100;28;20028;-67
2020/12/08 07:50:25;;;;;;;85.57;43.05;;;4.70;99.90;;;;;;5014459;28;20024;-68
2020/12/08 07:52:59;;;;;;;83.50;41.53;;;4.70;99.90;;;;;;5011720;28;20040;-67
2020/12/08 07:55:26;;;;;;;87.35;44.63;;;4.60;99.90;;;;;;5037516;28;20439;-67
2020/12/08 07:57:52;;;;;;;80.57;43.20;;;4.60;99.90;;;;;;5034378;28;20028;-67
2020/12/08 08:00:18;;;;;;;83.45;43.55;;;4.60;99.90;;;;;;5037386;28;20055;-67
2020/12/08 08:02:45;;;;;;;84.43;42.30;;;4.60;99.90;;;;;;5038004;28;20027;-68
2020/12/08 08:05:12;;;;;;;85.63;44.05;;;4.50;99.90;;;;;;5034285;28;20124;-67
2020/12/08 08:07:38;;;;;;;85.28;42.13;;;4.60;99.90;;;;;;5037088;28;20025;-67
2020/12/08 08:10:04;;;;;;;87.65;44.05;;;4.60;99.90;;;;;;5035695;28;20043;-68
2020/12/08 08:12:31;;;;;;;81.53;42.80;;;4.50;99.90;;;;;;5037196;28;20108;-67
2020/12/08 08:14:57;;;;;;;87.68;42.47;;;4.50;99.90;;;;;;5036705;28;20039;-67
2020/12/08 08:17:23;;;;;;;93.30;44.55;;;4.50;99.90;;;;;;5037817;28;20032;-67
2020/12/08 08:19:49;;;;;;;79.95;41.78;;;4.50;99.90;;;;;;5035604;28;20542;-67
2020/12/08 08:22:15;;;;;;;79.95;42.25;;;4.50;99.90;;;;;;5037008;28;20047;-67
2020/12/08 08:24:41;;;;;;;85.15;43.63;;;4.60;99.90;;;;;;5036957;28;20045;-67
2020/12/08 08:27:07;;;;;;;79.15;40.05;;;4.70;99.90;;;;;;5036617;28;20036;-67
2020/12/08 08:29:32;;;;;;;81.57;41.88;;;4.80;99.90;;;;;;5036262;28;20041;-67
2020/12/08 08:31:58;;;;;;;81.47;43.05;;;4.90;99.90;;;;;;5018350;28;20446;-67
2020/12/08 08:34:24;;;;;;;78.28;41.90;;;4.80;99.90;;;;;;5032523;28;20087;-67
2020/12/08 08:36:55;;;;;;;79.88;42.33;;;4.90;99.90;;;;;;5036152;28;20045;-67
2020/12/08 08:39:20;;;;;;;81.03;43.78;;;4.90;99.90;;;;;;5037113;28;20831;-67
2020/12/08 08:41:46;;;;;;;78.90;41.72;;;4.90;99.90;;;;;;5037251;28;20021;-67
2020/12/08 08:44:12;;;;;;;83.10;41.63;;;4.90;99.90;;;;;;5033711;28;20078;-67
2020/12/08 08:46:39;;;;;;;75.18;41.00;;;5.00;99.90;;;;;;5036985;28;20037;-67
2020/12/08 08:49:05;;;;;;;81.10;40.45;;;5.00;99.90;;;;;;5036844;28;20020;-67
2020/12/08 08:51:31;;;;;;;77.65;40.10;;;5.00;99.90;;;;;;5036504;28;20548;-67
2020/12/08 08:53:57;;;;;;;85.57;41.03;;;5.10;99.90;;;;;;5036387;28;20036;-67
2020/12/08 08:56:22;;;;;;;81.25;42.75;;;5.10;99.90;;;;;;5035009;28;20033;-67
2020/12/08 08:58:48;;;;;;;78.68;41.63;;;5.20;99.90;;;;;;5037204;28;20466;-67
2020/12/08 09:01:14;;;;;;;78.70;42.55;;;5.20;99.90;;;;;;5036308;28;20032;-67
2020/12/08 09:03:40;;;;;;;79.45;41.92;;;5.20;99.90;;;;;;5036241;28;20462;-68
2020/12/08 09:06:06;;;;;;;75.38;41.22;;;5.30;99.90;;;;;;5037113;28;20634;-67
2020/12/08 09:08:31;;;;;;;76.45;41.10;;;5.40;99.90;;;;;;5035619;28;20392;-67
2020/12/08 09:10:57;;;;;;;73.22;42.88;;;5.40;99.90;;;;;;5037485;28;20199;-67
2020/12/08 09:13:24;;;;;;;70.50;39.75;;;5.40;99.90;;;;;;5035741;28;20117;-67
2020/12/08 09:15:49;;;;;;;71.03;40.45;;;5.50;99.90;;;;;;5036801;28;20357;-67
2020/12/08 09:18:15;;;;;;;72.10;40.15;;;5.50;99.90;;;;;;5035874;28;20443;-67
2020/12/08 09:20:41;;;;;;;66.20;38.65;;;5.50;99.90;;;;;;5036770;28;20057;-67
2020/12/08 09:23:07;;;;;;;72.55;39.13;;;5.50;99.90;;;;;;5035829;28;20120;-67
2020/12/08 09:25:33;;;;;;;67.95;39.90;;;5.50;99.90;;;;;;5036915;28;20032;-67
2020/12/08 09:28:00;;;;;;;67.10;39.20;;;5.40;99.90;;;;;;5035882;28;20029;-68
2020/12/08 09:30:26;;;;;;;67.60;40.50;;;5.50;99.90;;;;;;5034780;28;20056;-67
2020/12/08 09:32:52;;;;;;;64.45;38.67;;;5.50;99.90;;;;;;5034698;28;20468;-67
2020/12/08 09:35:18;;;;;;;64.13;37.88;;;5.50;99.90;;;;;;5034969;28;20065;-67
2020/12/08 09:37:44;;;;;;;59.97;34.85;;;5.50;99.90;;;;;;5035342;28;20456;-67
2020/12/08 09:40:10;;;;;;;60.22;35.28;;;5.60;99.90;;;;;;5036693;28;20037;-68
2020/12/08 09:42:44;;;;;;;63.80;36.75;;;5.60;99.90;;;;;;5034521;28;20411;-68
2020/12/08 09:45:11;;;;;;;58.90;36.42;;;5.60;99.90;;;;;;5038861;28;20052;-67
2020/12/08 09:47:37;;;;;;;58.53;35.17;;;5.60;99.90;;;;;;5039019;28;20520;-67
2020/12/08 09:50:09;;;;;;;59.33;35.17;;;5.60;99.90;;;;;;5039397;28;20029;-67
2020/12/08 09:52:36;;;;;;;55.15;32.38;;;5.70;99.90;;;;;;5034275;28;20174;-67
2020/12/08 09:55:04;;;;;;;50.55;30.30;;;5.80;99.90;;;;;;5035430;28;20029;-67
2020/12/08 09:57:30;;;;;;;53.47;32.53;;;5.80;99.90;;;;;;5039521;28;20435;-67
2020/12/08 09:59:56;;;;;;;51.90;32.80;;;5.90;99.90;;;;;;5040397;28;20029;-67
2020/12/08 10:02:23;;;;;;;48.33;30.83;;;5.90;99.90;;;;;;5039293;28;20108;-67
2020/12/08 10:04:52;;;;;;;49.58;30.42;;;6.00;99.90;;;;;;5037832;28;20043;-67
2020/12/08 10:07:19;;;;;;;44.45;29.30;;;6.10;99.90;;;;;;5038750;28;20033;-67
2020/12/08 10:09:46;;;;;;;43.75;29.65;;;6.10;99.90;;;;;;5039519;28;20250;-67
2020/12/08 10:12:12;;;;;;;42.88;29.48;;;6.30;99.90;;;;;;5040409;28;20028;-67
2020/12/08 10:14:40;;;;;;;40.60;26.98;;;6.40;99.90;;;;;;5038434;28;20021;-67
2020/12/08 10:17:07;;;;;;;38.17;26.25;;;6.50;99.90;;;;;;5039906;28;20434;-67
2020/12/08 10:19:33;;;;;;;37.88;26.33;;;6.70;99.90;;;;;;5040109;28;20017;-67
2020/12/08 10:22:00;;;;;;;36.83;23.02;;;6.80;99.90;;;;;;5039291;28;20126;-67
2020/12/08 10:24:26;;;;;;;33.88;23.67;;;6.90;99.90;;;;;;5037170;28;20075;-67
2020/12/08 10:26:52;;;;;;;31.15;21.85;;;6.90;99.90;;;;;;5039051;28;20090;-68
2020/12/08 10:29:19;;;;;;;30.23;20.15;;;7.00;99.90;;;;;;5039463;28;20082;-67
2020/12/08 10:31:46;;;;;;;32.60;23.30;;;7.20;99.90;;;;;;5037587;28;20439;-67
2020/12/08 10:34:12;;;;;;;32.13;23.15;;;7.20;99.90;;;;;;5036914;28;20025;-67
2020/12/08 10:36:38;;;;;;;32.97;23.60;;;7.20;99.90;;;;;;5038484;28;20127;-67
2020/12/08 10:39:04;;;;;;;31.65;21.92;;;7.20;99.90;;;;;;5039176;28;20048;-67
2020/12/08 10:41:31;;;;;;;31.70;22.20;;;7.10;99.90;;;;;;5038373;28;20040;-67
2020/12/08 10:43:57;;;;;;;32.60;23.77;;;6.90;99.90;;;;;;5037039;28;20033;-67
2020/12/08 10:46:23;;;;;;;31.00;21.65;;;6.90;99.90;;;;;;5038878;28;20508;-67
2020/12/08 10:48:52;;;;;;;34.22;23.42;;;6.80;99.90;;;;;;5039274;28;20083;-66
2020/12/08 10:51:22;;;;;;;35.87;24.33;;;6.90;99.90;;;;;;5038333;28;20116;-67
2020/12/08 10:53:49;;;;;;;34.63;23.80;;;6.90;99.90;;;;;;5037531;28;20036;-66
2020/12/08 10:56:21;;;;;;;34.63;23.52;;;6.90;99.90;;;;;;5037798;28;20124;-67
2020/12/08 10:58:50;;;;;;;31.98;22.85;;;6.90;99.90;;;;;;5035929;28;20536;-68
2020/12/08 11:01:20;;;;;;;30.13;21.70;;;6.90;99.90;;;;;;5028958;28;20423;-67
2020/12/08 11:03:46;;;;;;;;;;;6.80;99.90;;;;;;5034831;28;20128;-67
2020/12/08 11:06:25;;;;;;;29.85;21.00;;;6.90;99.90;;;;;;5036870;28;20207;-67
2020/12/08 11:08:52;;;;;;;29.73;20.83;;;6.90;99.90;;;;;;5036955;28;20479;-67
2020/12/08 11:11:26;;;;;;;31.55;21.73;;;6.70;99.90;;;;;;5033642;28;20037;-67
2020/12/08 11:13:52;;;;;;;33.97;22.10;;;6.60;99.90;;;;;;5035536;28;20666;-67
2020/12/08 11:16:22;;;;;;;34.92;24.27;;;6.70;99.90;;;;;;5035396;28;20124;-67
2020/12/08 11:18:48;;;;;;;37.22;24.17;;;6.70;99.90;;;;;;5037635;28;20025;-67
2020/12/08 11:21:15;;;;;;;35.08;24.48;;;6.60;99.90;;;;;;5038845;28;20033;-67
2020/12/08 11:23:41;;;;;;;35.58;23.30;;;6.60;99.90;;;;;;5035966;28;20136;-67
2020/12/08 11:26:11;;;;;;;36.58;24.58;;;6.70;99.90;;;;;;5038553;28;20617;-67
2020/12/08 11:28:38;;;;;;;39.65;26.55;;;6.60;99.90;;;;;;5037613;28;20206;-67
2020/12/08 11:31:04;;;;;;;37.58;25.33;;;6.60;99.90;;;;;;5038028;28;20028;-67
2020/12/08 11:33:31;;;;;;;44.70;27.60;;;6.60;99.90;;;;;;5035856;28;20398;-66
2020/12/08 11:35:57;;;;;;;44.90;28.27;;;6.50;99.90;;;;;;5038633;28;20024;-66
2020/12/08 11:38:23;;;;;;;45.50;28.25;;;6.60;99.90;;;;;;5037064;28;20056;-67
2020/12/08 11:40:49;;;;;;;43.72;25.83;;;6.70;99.90;;;;;;5037443;28;20021;-67
2020/12/08 11:43:15;;;;;;;41.03;25.83;;;6.90;99.90;;;;;;5035791;28;21306;-66
2020/12/08 11:45:41;;;;;;;39.22;24.98;;;7.00;99.90;;;;;;5037675;28;20041;-67
2020/12/08 11:48:07;;;;;;;36.13;24.80;;;7.10;99.90;;;;;;5037271;28;20446;-67
2020/12/08 11:50:33;;;;;;;40.03;24.25;;;7.20;99.90;;;;;;5037670;28;20091;-67
2020/12/08 11:52:59;;;;;;;30.13;20.92;;;7.40;99.90;;;;;;5028927;28;20416;-67
2020/12/08 11:55:25;;;;;;;28.05;20.23;;;7.70;99.90;;;;;;5037085;28;20070;-67
2020/12/08 11:57:51;;;;;;;24.90;18.73;;;8.00;99.90;;;;;;5020279;28;20029;-67
2020/12/08 12:00:17;;;;;;;22.00;16.27;;;8.80;99.90;;;;;;5036943;28;20127;-67
2020/12/08 12:02:43;;;;;;;20.92;15.65;;;9.60;99.90;;;;;;5038416;28;20439;-67
2020/12/08 12:05:09;;;;;;;22.67;16.17;;;10.90;99.90;;;;;;5015834;28;20295;-68
2020/12/08 12:07:36;;;;;;;20.02;14.80;;;12.30;99.90;;;;;;5035054;28;20558;-67
2020/12/08 12:10:03;;;;;;;21.10;14.77;;;12.00;99.90;;;;;;5037786;28;20037;-68
2020/12/08 12:12:29;;;;;;;17.45;13.65;;;12.10;99.90;;;;;;5036443;28;20416;-68
2020/12/08 12:14:55;;;;;;;16.73;14.23;;;13.10;99.90;;;;;;5036756;28;20036;-68
2020/12/08 12:17:21;;;;;;;17.08;14.18;;;13.90;99.90;;;;;;5038342;28;20488;-68
2020/12/08 12:19:47;;;;;;;16.85;13.63;;;14.50;99.90;;;;;;5035716;28;20112;-67
2020/12/08 12:22:13;;;;;;;18.42;14.52;;;13.90;99.90;;;;;;5038233;28;20035;-66
2020/12/08 12:24:39;;;;;;;19.08;12.73;;;13.30;99.90;;;;;;5034257;28;20075;-68
2020/12/08 12:27:05;;;;;;;15.80;11.75;;;12.90;99.90;;;;;;5037117;28;20787;-68
2020/12/08 12:29:31;;;;;;;14.60;11.85;;;12.20;99.90;;;;;;5036813;28;20098;-68
2020/12/08 12:31:57;;;;;;;14.93;11.80;;;11.50;99.90;;;;;;5036505;28;20078;-68
2020/12/08 12:34:23;;;;;;;14.20;12.00;;;10.80;99.90;;;;;;5034839;28;20025;-67
2020/12/08 12:36:50;;;;;;;17.00;12.18;;;10.30;99.90;;;;;;5035109;28;20084;-67